Terminal Aerodrome Forecast
Issued by NWS Tuscon, AZ

Home | Current Version | Previous Version | Text Only | Print | Product List | Glossary On
Versions: 1 2 3 4 5 6 7 8 9 10 11 12 13 14 15 16 17 18 19 20
000
FTUS45 KTWC 251700
TAFDUG
TAF
KDUG 251722Z 2518/2618 VRB05KT P6SM FEW100
     FM252100 25008KT P6SM VCTS SCT070CB BKN150
     FM252300 27009KT P6SM SCT070 BKN120
     FM260300 32007KT P6SM FEW080 SCT200
     FM260800 11007KT P6SM SCT200=

USA.gov is the U.S. government's official web portal to all federal, state and local government web resources and services.